sensor_id;sensor_type;location;lat;lon;timestamp;temperature;humidity
60309;DHT22;50313;52.894;6.492;2022-10-16T00:00:36;12.30;99.90
60309;DHT22;50313;52.894;6.492;2022-10-16T00:03:03;12.20;99.90
60309;DHT22;50313;52.894;6.492;2022-10-16T00:05:29;12.20;99.90
60309;DHT22;50313;52.894;6.492;2022-10-16T00:07:55;12.20;99.90
60309;DHT22;50313;52.894;6.492;2022-10-16T00:10:20;12.30;99.90
60309;DHT22;50313;52.894;6.492;2022-10-16T00:12:46;12.30;99.90
60309;DHT22;50313;52.894;6.492;2022-10-16T00:15:12;12.30;99.90
60309;DHT22;50313;52.894;6.492;2022-10-16T00:17:38;12.20;99.90
60309;DHT22;50313;52.894;6.492;2022-10-16T00:20:04;12.20;99.90
60309;DHT22;50313;52.894;6.492;2022-10-16T00:22:30;12.30;99.90
60309;DHT22;50313;52.894;6.492;2022-10-16T00:24:56;12.20;99.90
60309;DHT22;50313;52.894;6.492;2022-10-16T00:27:22;12.20;99.90
60309;DHT22;50313;52.894;6.492;2022-10-16T00:29:51;12.30;99.90
60309;DHT22;50313;52.894;6.492;2022-10-16T00:32:19;12.30;99.90
60309;DHT22;50313;52.894;6.492;2022-10-16T00:34:45;12.30;99.90
60309;DHT22;50313;52.894;6.492;2022-10-16T00:37:11;12.30;99.90
60309;DHT22;50313;52.894;6.492;2022-10-16T00:39:37;12.30;99.90
60309;DHT22;50313;52.894;6.492;2022-10-16T00:42:03;12.20;99.90
60309;DHT22;50313;52.894;6.492;2022-10-16T00:44:51;12.20;99.90
60309;DHT22;50313;52.894;6.492;2022-10-16T00:47:35;12.20;99.90
60309;DHT22;50313;52.894;6.492;2022-10-16T00:52:32;12.20;99.90
60309;DHT22;50313;52.894;6.492;2022-10-16T00:54:58;12.20;99.90
60309;DHT22;50313;52.894;6.492;2022-10-16T00:57:25;12.20;99.90
60309;DHT22;50313;52.894;6.492;2022-10-16T00:59:52;12.30;99.90
60309;DHT22;50313;52.894;6.492;2022-10-16T01:02:18;12.30;99.90
60309;DHT22;50313;52.894;6.492;2022-10-16T01:04:50;12.30;99.90
60309;DHT22;50313;52.894;6.492;2022-10-16T01:07:25;12.30;99.90
60309;DHT22;50313;52.894;6.492;2022-10-16T01:13:02;12.30;99.90
60309;DHT22;50313;52.894;6.492;2022-10-16T01:15:36;12.30;99.90
60309;DHT22;50313;52.894;6.492;2022-10-16T01:18:08;12.40;99.90
60309;DHT22;50313;52.894;6.492;2022-10-16T01:20:38;12.30;99.90
60309;DHT22;50313;52.894;6.492;2022-10-16T01:28:41;12.40;99.90
60309;DHT22;50313;52.894;6.492;2022-10-16T01:31:09;12.30;99.90
60309;DHT22;50313;52.894;6.492;2022-10-16T01:36:56;12.40;99.90
60309;DHT22;50313;52.894;6.492;2022-10-16T01:39:24;12.40;99.90
60309;DHT22;50313;52.894;6.492;2022-10-16T01:42:16;12.40;99.90
60309;DHT22;50313;52.894;6.492;2022-10-16T01:44:46;12.50;99.90
60309;DHT22;50313;52.894;6.492;2022-10-16T01:47:13;12.50;99.90
60309;DHT22;50313;52.894;6.492;2022-10-16T01:49:40;12.50;99.90
60309;DHT22;50313;52.894;6.492;2022-10-16T01:52:11;12.60;99.90
60309;DHT22;50313;52.894;6.492;2022-10-16T01:54:41;12.60;99.90
60309;DHT22;50313;52.894;6.492;2022-10-16T01:57:08;12.70;99.90
60309;DHT22;50313;52.894;6.492;2022-10-16T01:59:40;12.60;99.90
60309;DHT22;50313;52.894;6.492;2022-10-16T02:02:09;12.60;99.90
60309;DHT22;50313;52.894;6.492;2022-10-16T02:04:42;12.60;99.90
60309;DHT22;50313;52.894;6.492;2022-10-16T02:07:09;12.60;99.90
60309;DHT22;50313;52.894;6.492;2022-10-16T02:09:36;12.60;99.90
60309;DHT22;50313;52.894;6.492;2022-10-16T02:12:15;12.60;99.90
60309;DHT22;50313;52.894;6.492;2022-10-16T02:14:43;12.60;99.90
60309;DHT22;50313;52.894;6.492;2022-10-16T02:17:12;12.60;99.90
60309;DHT22;50313;52.894;6.492;2022-10-16T02:19:37;12.60;99.90
60309;DHT22;50313;52.894;6.492;2022-10-16T02:22:06;12.60;99.90
60309;DHT22;50313;52.894;6.492;2022-10-16T02:27:35;12.60;99.90
60309;DHT22;50313;52.894;6.492;2022-10-16T02:30:14;12.60;99.90
60309;DHT22;50313;52.894;6.492;2022-10-16T02:32:46;12.70;99.90
60309;DHT22;50313;52.894;6.492;2022-10-16T02:35:18;12.70;99.90
60309;DHT22;50313;52.894;6.492;2022-10-16T02:37:45;12.60;99.90
60309;DHT22;50313;52.894;6.492;2022-10-16T02:40:11;12.60;99.90
60309;DHT22;50313;52.894;6.492;2022-10-16T02:42:39;12.70;99.90
60309;DHT22;50313;52.894;6.492;2022-10-16T02:45:09;12.70;99.90
60309;DHT22;50313;52.894;6.492;2022-10-16T02:47:35;12.70;99.90
60309;DHT22;50313;52.894;6.492;2022-10-16T02:50:01;12.70;99.90
60309;DHT22;50313;52.894;6.492;2022-10-16T02:52:27;12.70;99.90
60309;DHT22;50313;52.894;6.492;2022-10-16T02:54:52;12.70;99.90
60309;DHT22;50313;52.894;6.492;2022-10-16T02:57:18;12.70;99.90
60309;DHT22;50313;52.894;6.492;2022-10-16T02:59:44;12.60;99.90
60309;DHT22;50313;52.894;6.492;2022-10-16T03:02:10;12.60;99.90
60309;DHT22;50313;52.894;6.492;2022-10-16T03:04:36;12.60;99.90
60309;DHT22;50313;52.894;6.492;2022-10-16T03:07:02;12.50;99.90
60309;DHT22;50313;52.894;6.492;2022-10-16T03:09:28;12.50;99.90
60309;DHT22;50313;52.894;6.492;2022-10-16T03:11:53;12.50;99.90
60309;DHT22;50313;52.894;6.492;2022-10-16T03:14:19;12.50;99.90
60309;DHT22;50313;52.894;6.492;2022-10-16T03:16:44;12.50;99.90
60309;DHT22;50313;52.894;6.492;2022-10-16T03:19:10;12.50;99.90
60309;DHT22;50313;52.894;6.492;2022-10-16T03:21:36;12.50;99.90
60309;DHT22;50313;52.894;6.492;2022-10-16T03:24:02;12.60;99.90
60309;DHT22;50313;52.894;6.492;2022-10-16T03:26:27;12.60;99.90
60309;DHT22;50313;52.894;6.492;2022-10-16T03:28:53;12.60;99.90
60309;DHT22;50313;52.894;6.492;2022-10-16T03:31:19;12.60;99.90
60309;DHT22;50313;52.894;6.492;2022-10-16T03:33:44;12.50;99.90
60309;DHT22;50313;52.894;6.492;2022-10-16T03:36:10;12.60;99.90
60309;DHT22;50313;52.894;6.492;2022-10-16T03:38:36;12.50;99.90
60309;DHT22;50313;52.894;6.492;2022-10-16T03:41:01;12.60;99.90
60309;DHT22;50313;52.894;6.492;2022-10-16T03:43:27;12.60;99.90
60309;DHT22;50313;52.894;6.492;2022-10-16T03:45:53;12.60;99.90
60309;DHT22;50313;52.894;6.492;2022-10-16T03:48:19;12.60;99.90
60309;DHT22;50313;52.894;6.492;2022-10-16T03:50:45;12.60;99.90
60309;DHT22;50313;52.894;6.492;2022-10-16T03:53:14;12.60;99.90
60309;DHT22;50313;52.894;6.492;2022-10-16T03:55:42;12.40;99.90
60309;DHT22;50313;52.894;6.492;2022-10-16T03:58:08;12.40;99.90
60309;DHT22;50313;52.894;6.492;2022-10-16T04:00:33;12.40;99.90
60309;DHT22;50313;52.894;6.492;2022-10-16T04:03:00;12.40;99.90
60309;DHT22;50313;52.894;6.492;2022-10-16T04:05:26;12.40;99.90
60309;DHT22;50313;52.894;6.492;2022-10-16T04:07:51;12.40;99.90
60309;DHT22;50313;52.894;6.492;2022-10-16T04:10:17;12.40;99.90
60309;DHT22;50313;52.894;6.492;2022-10-16T04:12:43;12.40;99.90
60309;DHT22;50313;52.894;6.492;2022-10-16T04:15:09;12.30;99.90
60309;DHT22;50313;52.894;6.492;2022-10-16T04:17:35;12.40;99.90
60309;DHT22;50313;52.894;6.492;2022-10-16T04:20:01;12.40;99.90
60309;DHT22;50313;52.894;6.492;2022-10-16T04:22:26;12.30;99.90
60309;DHT22;50313;52.894;6.492;2022-10-16T04:24:52;12.30;99.90
60309;DHT22;50313;52.894;6.492;2022-10-16T04:27:18;12.30;99.90
60309;DHT22;50313;52.894;6.492;2022-10-16T04:29:43;12.20;99.90
60309;DHT22;50313;52.894;6.492;2022-10-16T04:32:09;12.20;99.90
60309;DHT22;50313;52.894;6.492;2022-10-16T04:34:35;12.20;99.90
60309;DHT22;50313;52.894;6.492;2022-10-16T04:37:01;12.20;99.90
60309;DHT22;50313;52.894;6.492;2022-10-16T04:39:26;12.10;99.90
60309;DHT22;50313;52.894;6.492;2022-10-16T04:41:52;12.10;99.90
60309;DHT22;50313;52.894;6.492;2022-10-16T04:44:17;12.10;99.90
60309;DHT22;50313;52.894;6.492;2022-10-16T04:46:43;12.20;99.90
60309;DHT22;50313;52.894;6.492;2022-10-16T04:49:09;12.20;99.90
60309;DHT22;50313;52.894;6.492;2022-10-16T04:51:35;12.30;99.90
60309;DHT22;50313;52.894;6.492;2022-10-16T04:54:01;12.30;99.90
60309;DHT22;50313;52.894;6.492;2022-10-16T04:56:27;12.40;99.90
60309;DHT22;50313;52.894;6.492;2022-10-16T04:58:53;12.40;99.90
60309;DHT22;50313;52.894;6.492;2022-10-16T05:01:19;12.40;99.90
60309;DHT22;50313;52.894;6.492;2022-10-16T05:03:45;12.40;99.90
60309;DHT22;50313;52.894;6.492;2022-10-16T05:06:11;12.40;99.90
60309;DHT22;50313;52.894;6.492;2022-10-16T05:08:36;12.40;99.90
60309;DHT22;50313;52.894;6.492;2022-10-16T05:11:02;12.40;99.90
60309;DHT22;50313;52.894;6.492;2022-10-16T05:13:28;12.40;99.90
60309;DHT22;50313;52.894;6.492;2022-10-16T05:15:54;12.40;99.90
60309;DHT22;50313;52.894;6.492;2022-10-16T05:18:19;12.40;99.90
60309;DHT22;50313;52.894;6.492;2022-10-16T05:20:45;12.50;99.90
60309;DHT22;50313;52.894;6.492;2022-10-16T05:23:11;12.50;99.90
60309;DHT22;50313;52.894;6.492;2022-10-16T05:25:37;12.40;99.90
60309;DHT22;50313;52.894;6.492;2022-10-16T05:28:03;12.40;99.90
60309;DHT22;50313;52.894;6.492;2022-10-16T05:30:29;12.40;99.90
60309;DHT22;50313;52.894;6.492;2022-10-16T05:32:55;12.60;99.90
60309;DHT22;50313;52.894;6.492;2022-10-16T05:35:21;12.50;99.90
60309;DHT22;50313;52.894;6.492;2022-10-16T05:37:47;12.50;99.90
60309;DHT22;50313;52.894;6.492;2022-10-16T05:40:14;12.60;99.90
60309;DHT22;50313;52.894;6.492;2022-10-16T05:42:40;12.60;99.90
60309;DHT22;50313;52.894;6.492;2022-10-16T05:45:07;12.60;99.90
60309;DHT22;50313;52.894;6.492;2022-10-16T05:47:33;12.60;99.90
60309;DHT22;50313;52.894;6.492;2022-10-16T05:49:59;12.60;99.90
60309;DHT22;50313;52.894;6.492;2022-10-16T05:52:26;12.60;99.90
60309;DHT22;50313;52.894;6.492;2022-10-16T05:54:52;12.50;99.90
60309;DHT22;50313;52.894;6.492;2022-10-16T05:57:17;12.50;99.90
60309;DHT22;50313;52.894;6.492;2022-10-16T05:59:43;12.60;99.90
60309;DHT22;50313;52.894;6.492;2022-10-16T06:02:12;12.60;99.90
60309;DHT22;50313;52.894;6.492;2022-10-16T06:04:38;12.60;99.90
60309;DHT22;50313;52.894;6.492;2022-10-16T06:07:03;12.60;99.90
60309;DHT22;50313;52.894;6.492;2022-10-16T06:09:29;12.60;99.90
60309;DHT22;50313;52.894;6.492;2022-10-16T06:11:55;12.60;99.90
60309;DHT22;50313;52.894;6.492;2022-10-16T06:14:20;12.60;99.90
60309;DHT22;50313;52.894;6.492;2022-10-16T06:16:46;12.60;99.90
60309;DHT22;50313;52.894;6.492;2022-10-16T06:19:12;12.50;99.90
60309;DHT22;50313;52.894;6.492;2022-10-16T06:21:38;12.50;99.90
60309;DHT22;50313;52.894;6.492;2022-10-16T06:24:03;12.50;99.90
60309;DHT22;50313;52.894;6.492;2022-10-16T06:26:30;12.50;99.90
60309;DHT22;50313;52.894;6.492;2022-10-16T06:28:57;12.60;99.90
60309;DHT22;50313;52.894;6.492;2022-10-16T06:31:24;12.50;99.90
60309;DHT22;50313;52.894;6.492;2022-10-16T06:33:53;12.50;99.90
60309;DHT22;50313;52.894;6.492;2022-10-16T06:36:20;12.50;99.90
60309;DHT22;50313;52.894;6.492;2022-10-16T06:38:46;12.50;99.90
60309;DHT22;50313;52.894;6.492;2022-10-16T06:41:18;12.60;99.90
60309;DHT22;50313;52.894;6.492;2022-10-16T06:43:44;12.60;99.90
60309;DHT22;50313;52.894;6.492;2022-10-16T06:46:12;12.50;99.90
60309;DHT22;50313;52.894;6.492;2022-10-16T06:48:38;12.60;99.90
60309;DHT22;50313;52.894;6.492;2022-10-16T06:51:07;12.60;99.90
60309;DHT22;50313;52.894;6.492;2022-10-16T06:53:35;12.50;99.90
60309;DHT22;50313;52.894;6.492;2022-10-16T06:58:41;12.60;99.90
60309;DHT22;50313;52.894;6.492;2022-10-16T07:01:07;12.60;99.90
60309;DHT22;50313;52.894;6.492;2022-10-16T07:03:43;12.60;99.90
60309;DHT22;50313;52.894;6.492;2022-10-16T07:06:11;12.70;99.90
60309;DHT22;50313;52.894;6.492;2022-10-16T07:08:40;12.70;99.90
60309;DHT22;50313;52.894;6.492;2022-10-16T07:11:10;12.80;99.90
60309;DHT22;50313;52.894;6.492;2022-10-16T07:13:37;12.80;99.90
60309;DHT22;50313;52.894;6.492;2022-10-16T07:16:08;12.80;99.90
60309;DHT22;50313;52.894;6.492;2022-10-16T07:18:35;12.80;99.90
60309;DHT22;50313;52.894;6.492;2022-10-16T07:21:15;12.80;99.90
60309;DHT22;50313;52.894;6.492;2022-10-16T07:23:42;12.90;99.90
60309;DHT22;50313;52.894;6.492;2022-10-16T07:26:08;12.90;99.90
60309;DHT22;50313;52.894;6.492;2022-10-16T07:28:34;13.00;99.90
60309;DHT22;50313;52.894;6.492;2022-10-16T07:31:05;13.00;99.90
60309;DHT22;50313;52.894;6.492;2022-10-16T07:33:32;13.00;99.90
60309;DHT22;50313;52.894;6.492;2022-10-16T07:35:58;13.00;99.90
60309;DHT22;50313;52.894;6.492;2022-10-16T07:38:24;13.00;99.90
60309;DHT22;50313;52.894;6.492;2022-10-16T07:41:06;13.10;99.90
60309;DHT22;50313;52.894;6.492;2022-10-16T07:43:33;13.10;99.90
60309;DHT22;50313;52.894;6.492;2022-10-16T07:45:59;13.20;99.90
60309;DHT22;50313;52.894;6.492;2022-10-16T07:48:30;13.20;99.90
60309;DHT22;50313;52.894;6.492;2022-10-16T07:51:00;13.20;99.90
60309;DHT22;50313;52.894;6.492;2022-10-16T07:53:27;13.20;99.90
60309;DHT22;50313;52.894;6.492;2022-10-16T07:55:57;13.30;99.90
60309;DHT22;50313;52.894;6.492;2022-10-16T07:58:23;13.30;99.90
60309;DHT22;50313;52.894;6.492;2022-10-16T08:00:49;13.40;99.90
60309;DHT22;50313;52.894;6.492;2022-10-16T08:03:15;13.50;99.90
60309;DHT22;50313;52.894;6.492;2022-10-16T08:05:41;13.50;99.90
60309;DHT22;50313;52.894;6.492;2022-10-16T08:08:10;13.60;99.90
60309;DHT22;50313;52.894;6.492;2022-10-16T08:10:36;13.70;99.90
60309;DHT22;50313;52.894;6.492;2022-10-16T08:13:02;13.80;99.90
60309;DHT22;50313;52.894;6.492;2022-10-16T08:15:28;13.80;99.90
60309;DHT22;50313;52.894;6.492;2022-10-16T08:18:01;13.90;99.90
60309;DHT22;50313;52.894;6.492;2022-10-16T08:20:28;13.90;99.90
60309;DHT22;50313;52.894;6.492;2022-10-16T08:22:54;13.90;99.90
60309;DHT22;50313;52.894;6.492;2022-10-16T08:25:24;13.80;99.90
60309;DHT22;50313;52.894;6.492;2022-10-16T08:27:50;13.80;99.90
60309;DHT22;50313;52.894;6.492;2022-10-16T08:30:18;13.90;99.90
60309;DHT22;50313;52.894;6.492;2022-10-16T08:32:44;13.90;99.90
60309;DHT22;50313;52.894;6.492;2022-10-16T08:35:10;14.00;99.90
60309;DHT22;50313;52.894;6.492;2022-10-16T08:37:36;14.10;99.90
60309;DHT22;50313;52.894;6.492;2022-10-16T08:40:04;14.20;99.90
60309;DHT22;50313;52.894;6.492;2022-10-16T08:48:30;14.20;99.90
60309;DHT22;50313;52.894;6.492;2022-10-16T08:51:01;14.20;99.90
60309;DHT22;50313;52.894;6.492;2022-10-16T08:53:31;14.20;99.90
60309;DHT22;50313;52.894;6.492;2022-10-16T08:55:59;14.20;99.90
60309;DHT22;50313;52.894;6.492;2022-10-16T08:58:29;14.20;99.90
60309;DHT22;50313;52.894;6.492;2022-10-16T09:00:58;14.20;99.90
60309;DHT22;50313;52.894;6.492;2022-10-16T09:03:48;14.30;99.90
60309;DHT22;50313;52.894;6.492;2022-10-16T09:06:50;14.40;99.90
60309;DHT22;50313;52.894;6.492;2022-10-16T09:12:21;14.60;99.90
60309;DHT22;50313;52.894;6.492;2022-10-16T09:17:59;14.70;99.90
60309;DHT22;50313;52.894;6.492;2022-10-16T09:23:21;14.80;99.90
60309;DHT22;50313;52.894;6.492;2022-10-16T09:25:49;14.90;99.90
60309;DHT22;50313;52.894;6.492;2022-10-16T09:28:17;15.00;99.90
60309;DHT22;50313;52.894;6.492;2022-10-16T09:30:43;15.00;99.90
60309;DHT22;50313;52.894;6.492;2022-10-16T09:33:11;15.10;99.90
60309;DHT22;50313;52.894;6.492;2022-10-16T09:35:43;15.10;99.90
60309;DHT22;50313;52.894;6.492;2022-10-16T09:38:30;15.20;99.90
60309;DHT22;50313;52.894;6.492;2022-10-16T09:40:57;15.20;99.90
60309;DHT22;50313;52.894;6.492;2022-10-16T09:43:33;15.20;99.90
60309;DHT22;50313;52.894;6.492;2022-10-16T09:46:19;15.30;99.90
60309;DHT22;50313;52.894;6.492;2022-10-16T09:48:51;15.30;99.90
60309;DHT22;50313;52.894;6.492;2022-10-16T09:51:43;15.50;99.90
60309;DHT22;50313;52.894;6.492;2022-10-16T09:56:36;15.70;99.90
60309;DHT22;50313;52.894;6.492;2022-10-16T09:59:14;15.70;99.90
60309;DHT22;50313;52.894;6.492;2022-10-16T10:01:51;15.90;99.90
60309;DHT22;50313;52.894;6.492;2022-10-16T10:04:22;16.10;99.90
60309;DHT22;50313;52.894;6.492;2022-10-16T10:06:52;16.10;99.90
60309;DHT22;50313;52.894;6.492;2022-10-16T10:11:54;16.20;99.90
60309;DHT22;50313;52.894;6.492;2022-10-16T10:14:24;16.10;99.90
60309;DHT22;50313;52.894;6.492;2022-10-16T10:16:51;16.20;99.90
60309;DHT22;50313;52.894;6.492;2022-10-16T10:19:20;16.20;99.90
60309;DHT22;50313;52.894;6.492;2022-10-16T10:21:47;16.30;99.90
60309;DHT22;50313;52.894;6.492;2022-10-16T10:24:15;16.10;99.90
60309;DHT22;50313;52.894;6.492;2022-10-16T10:26:54;15.90;99.90
60309;DHT22;50313;52.894;6.492;2022-10-16T10:29:47;15.90;99.90
60309;DHT22;50313;52.894;6.492;2022-10-16T10:40:23;16.20;99.90
60309;DHT22;50313;52.894;6.492;2022-10-16T10:43:01;16.30;99.90
60309;DHT22;50313;52.894;6.492;2022-10-16T10:45:42;16.20;99.90
60309;DHT22;50313;52.894;6.492;2022-10-16T10:48:28;16.30;99.90
60309;DHT22;50313;52.894;6.492;2022-10-16T10:51:04;16.30;99.90
60309;DHT22;50313;52.894;6.492;2022-10-16T10:53:56;16.40;99.90
60309;DHT22;50313;52.894;6.492;2022-10-16T10:59:53;16.50;99.90
60309;DHT22;50313;52.894;6.492;2022-10-16T11:02:31;16.40;99.90
60309;DHT22;50313;52.894;6.492;2022-10-16T11:05:35;16.30;99.90
60309;DHT22;50313;52.894;6.492;2022-10-16T11:10:58;16.50;99.90
60309;DHT22;50313;52.894;6.492;2022-10-16T11:15:58;16.60;99.90
60309;DHT22;50313;52.894;6.492;2022-10-16T11:18:39;16.80;99.90
60309;DHT22;50313;52.894;6.492;2022-10-16T11:21:11;16.90;99.90
60309;DHT22;50313;52.894;6.492;2022-10-16T11:26:19;16.90;99.90
60309;DHT22;50313;52.894;6.492;2022-10-16T11:28:50;16.80;99.90
60309;DHT22;50313;52.894;6.492;2022-10-16T11:31:41;16.60;99.90
60309;DHT22;50313;52.894;6.492;2022-10-16T11:34:21;16.50;99.90
60309;DHT22;50313;52.894;6.492;2022-10-16T11:36:51;16.40;99.90
60309;DHT22;50313;52.894;6.492;2022-10-16T11:39:25;16.30;99.90
60309;DHT22;50313;52.894;6.492;2022-10-16T11:42:03;16.10;99.90
60309;DHT22;50313;52.894;6.492;2022-10-16T11:47:27;16.00;99.90
60309;DHT22;50313;52.894;6.492;2022-10-16T11:49:59;15.90;99.90
60309;DHT22;50313;52.894;6.492;2022-10-16T11:52:40;16.00;99.90
60309;DHT22;50313;52.894;6.492;2022-10-16T11:55:27;16.10;99.90
60309;DHT22;50313;52.894;6.492;2022-10-16T12:08:35;16.50;99.90
60309;DHT22;50313;52.894;6.492;2022-10-16T12:19:21;16.20;99.90
60309;DHT22;50313;52.894;6.492;2022-10-16T12:21:55;16.30;99.90
60309;DHT22;50313;52.894;6.492;2022-10-16T12:24:29;16.40;99.90
60309;DHT22;50313;52.894;6.492;2022-10-16T12:26:56;16.40;99.90
60309;DHT22;50313;52.894;6.492;2022-10-16T12:29:46;16.40;99.90
60309;DHT22;50313;52.894;6.492;2022-10-16T12:34:53;16.10;99.90
60309;DHT22;50313;52.894;6.492;2022-10-16T12:37:29;16.20;99.90
60309;DHT22;50313;52.894;6.492;2022-10-16T12:39:57;16.30;99.90
60309;DHT22;50313;52.894;6.492;2022-10-16T12:44:53;16.70;99.90
60309;DHT22;50313;52.894;6.492;2022-10-16T12:47:35;16.80;99.90
60309;DHT22;50313;52.894;6.492;2022-10-16T12:50:01;16.90;99.90
60309;DHT22;50313;52.894;6.492;2022-10-16T12:52:36;16.90;99.90
60309;DHT22;50313;52.894;6.492;2022-10-16T12:55:03;16.90;99.90
60309;DHT22;50313;52.894;6.492;2022-10-16T13:00:44;17.10;99.90
60309;DHT22;50313;52.894;6.492;2022-10-16T13:06:05;16.80;99.90
60309;DHT22;50313;52.894;6.492;2022-10-16T13:22:35;16.80;99.90
60309;DHT22;50313;52.894;6.492;2022-10-16T13:28:09;16.90;99.90
60309;DHT22;50313;52.894;6.492;2022-10-16T13:30:41;16.70;99.90
60309;DHT22;50313;52.894;6.492;2022-10-16T13:33:32;16.50;99.90
60309;DHT22;50313;52.894;6.492;2022-10-16T13:35:59;16.90;99.90
60309;DHT22;50313;52.894;6.492;2022-10-16T13:38:36;17.20;99.90
60309;DHT22;50313;52.894;6.492;2022-10-16T13:41:04;17.30;99.90
60309;DHT22;50313;52.894;6.492;2022-10-16T13:43:35;17.30;99.90
60309;DHT22;50313;52.894;6.492;2022-10-16T13:46:03;17.50;99.90
60309;DHT22;50313;52.894;6.492;2022-10-16T13:48:30;17.80;99.90
60309;DHT22;50313;52.894;6.492;2022-10-16T13:53:36;18.30;99.90
60309;DHT22;50313;52.894;6.492;2022-10-16T13:56:04;18.50;99.90
60309;DHT22;50313;52.894;6.492;2022-10-16T13:58:31;18.60;99.90
60309;DHT22;50313;52.894;6.492;2022-10-16T14:00:59;18.90;99.90
60309;DHT22;50313;52.894;6.492;2022-10-16T14:03:26;18.70;99.90
60309;DHT22;50313;52.894;6.492;2022-10-16T14:06:01;18.50;99.90
60309;DHT22;50313;52.894;6.492;2022-10-16T14:08:29;18.10;99.90
60309;DHT22;50313;52.894;6.492;2022-10-16T14:10:57;18.20;99.90
60309;DHT22;50313;52.894;6.492;2022-10-16T14:13:40;18.50;99.90
60309;DHT22;50313;52.894;6.492;2022-10-16T14:16:10;18.50;99.90
60309;DHT22;50313;52.894;6.492;2022-10-16T14:18:40;18.20;99.90
60309;DHT22;50313;52.894;6.492;2022-10-16T14:21:12;17.80;99.90
60309;DHT22;50313;52.894;6.492;2022-10-16T14:23:40;17.60;99.90
60309;DHT22;50313;52.894;6.492;2022-10-16T14:28:36;17.30;99.90
60309;DHT22;50313;52.894;6.492;2022-10-16T14:33:51;17.30;99.90
60309;DHT22;50313;52.894;6.492;2022-10-16T14:36:17;17.30;99.90
60309;DHT22;50313;52.894;6.492;2022-10-16T14:41:23;17.00;99.90
60309;DHT22;50313;52.894;6.492;2022-10-16T14:43:53;16.90;99.90
60309;DHT22;50313;52.894;6.492;2022-10-16T14:46:22;16.80;99.90
60309;DHT22;50313;52.894;6.492;2022-10-16T14:48:58;16.80;99.90
60309;DHT22;50313;52.894;6.492;2022-10-16T14:51:25;16.70;99.90
60309;DHT22;50313;52.894;6.492;2022-10-16T14:53:52;16.80;99.90
60309;DHT22;50313;52.894;6.492;2022-10-16T14:56:21;16.90;99.90
60309;DHT22;50313;52.894;6.492;2022-10-16T14:58:48;17.00;99.90
60309;DHT22;50313;52.894;6.492;2022-10-16T15:01:15;17.00;99.90
60309;DHT22;50313;52.894;6.492;2022-10-16T15:03:40;16.90;99.90
60309;DHT22;50313;52.894;6.492;2022-10-16T15:06:14;17.00;99.90
60309;DHT22;50313;52.894;6.492;2022-10-16T15:08:41;16.90;99.90
60309;DHT22;50313;52.894;6.492;2022-10-16T15:11:17;16.80;99.90
60309;DHT22;50313;52.894;6.492;2022-10-16T15:13:44;16.80;99.90
60309;DHT22;50313;52.894;6.492;2022-10-16T15:16:12;16.70;99.90
60309;DHT22;50313;52.894;6.492;2022-10-16T15:18:38;16.60;99.90
60309;DHT22;50313;52.894;6.492;2022-10-16T15:21:03;16.50;99.90
60309;DHT22;50313;52.894;6.492;2022-10-16T15:23:29;16.50;99.90
60309;DHT22;50313;52.894;6.492;2022-10-16T15:25:56;16.40;99.90
60309;DHT22;50313;52.894;6.492;2022-10-16T15:28:23;16.30;99.90
60309;DHT22;50313;52.894;6.492;2022-10-16T15:30:54;16.10;99.90
60309;DHT22;50313;52.894;6.492;2022-10-16T15:33:22;16.10;99.90
60309;DHT22;50313;52.894;6.492;2022-10-16T15:35:50;16.00;99.90
60309;DHT22;50313;52.894;6.492;2022-10-16T15:38:18;15.80;99.90
60309;DHT22;50313;52.894;6.492;2022-10-16T15:40:45;15.80;99.90
60309;DHT22;50313;52.894;6.492;2022-10-16T15:43:11;15.70;99.90
60309;DHT22;50313;52.894;6.492;2022-10-16T15:45:37;15.60;99.90
60309;DHT22;50313;52.894;6.492;2022-10-16T15:48:03;15.50;99.90
60309;DHT22;50313;52.894;6.492;2022-10-16T15:50:30;15.40;99.90
60309;DHT22;50313;52.894;6.492;2022-10-16T15:52:56;15.30;99.90
60309;DHT22;50313;52.894;6.492;2022-10-16T15:55:21;15.20;99.90
60309;DHT22;50313;52.894;6.492;2022-10-16T15:57:47;15.10;99.90
60309;DHT22;50313;52.894;6.492;2022-10-16T16:00:18;15.10;99.90
60309;DHT22;50313;52.894;6.492;2022-10-16T16:02:51;15.00;99.90
60309;DHT22;50313;52.894;6.492;2022-10-16T16:05:18;14.90;99.90
60309;DHT22;50313;52.894;6.492;2022-10-16T16:07:44;14.90;99.90
60309;DHT22;50313;52.894;6.492;2022-10-16T16:10:11;14.80;99.90
60309;DHT22;50313;52.894;6.492;2022-10-16T16:12:37;14.80;99.90
60309;DHT22;50313;52.894;6.492;2022-10-16T16:15:07;14.70;99.90
60309;DHT22;50313;52.894;6.492;2022-10-16T16:17:34;14.60;99.90
60309;DHT22;50313;52.894;6.492;2022-10-16T16:20:00;14.50;99.90
60309;DHT22;50313;52.894;6.492;2022-10-16T16:22:26;14.40;99.90
60309;DHT22;50313;52.894;6.492;2022-10-16T16:24:52;14.30;99.90
60309;DHT22;50313;52.894;6.492;2022-10-16T16:27:17;14.20;99.90
60309;DHT22;50313;52.894;6.492;2022-10-16T16:29:45;14.20;99.90
60309;DHT22;50313;52.894;6.492;2022-10-16T16:32:11;14.00;99.90
60309;DHT22;50313;52.894;6.492;2022-10-16T16:34:36;13.90;99.90
60309;DHT22;50313;52.894;6.492;2022-10-16T16:37:02;13.80;99.90
60309;DHT22;50313;52.894;6.492;2022-10-16T16:39:28;13.80;99.90
60309;DHT22;50313;52.894;6.492;2022-10-16T16:41:56;13.60;99.90
60309;DHT22;50313;52.894;6.492;2022-10-16T16:44:24;13.50;99.90
60309;DHT22;50313;52.894;6.492;2022-10-16T16:46:50;13.50;99.90
60309;DHT22;50313;52.894;6.492;2022-10-16T16:49:20;13.40;99.90
60309;DHT22;50313;52.894;6.492;2022-10-16T16:51:47;13.30;99.90
60309;DHT22;50313;52.894;6.492;2022-10-16T16:54:12;13.30;99.90
60309;DHT22;50313;52.894;6.492;2022-10-16T16:56:39;13.20;99.90
60309;DHT22;50313;52.894;6.492;2022-10-16T16:59:13;13.10;99.90
60309;DHT22;50313;52.894;6.492;2022-10-16T17:01:39;13.10;99.90
60309;DHT22;50313;52.894;6.492;2022-10-16T17:04:05;13.00;99.90
60309;DHT22;50313;52.894;6.492;2022-10-16T17:06:31;12.90;99.90
60309;DHT22;50313;52.894;6.492;2022-10-16T17:08:58;12.90;99.90
60309;DHT22;50313;52.894;6.492;2022-10-16T17:11:26;12.80;99.90
60309;DHT22;50313;52.894;6.492;2022-10-16T17:13:53;12.70;99.90
60309;DHT22;50313;52.894;6.492;2022-10-16T17:16:20;12.70;99.90
60309;DHT22;50313;52.894;6.492;2022-10-16T17:18:46;12.60;99.90
60309;DHT22;50313;52.894;6.492;2022-10-16T17:21:12;12.50;99.90
60309;DHT22;50313;52.894;6.492;2022-10-16T17:23:38;12.40;99.90
60309;DHT22;50313;52.894;6.492;2022-10-16T17:26:09;12.30;99.90
60309;DHT22;50313;52.894;6.492;2022-10-16T17:28:36;12.30;99.90
60309;DHT22;50313;52.894;6.492;2022-10-16T17:31:09;12.20;99.90
60309;DHT22;50313;52.894;6.492;2022-10-16T17:33:35;12.20;99.90
60309;DHT22;50313;52.894;6.492;2022-10-16T17:36:00;12.20;99.90
60309;DHT22;50313;52.894;6.492;2022-10-16T17:38:26;12.10;99.90
60309;DHT22;50313;52.894;6.492;2022-10-16T17:40:52;12.10;99.90